sensor_id;sensor_type;location;lat;lon;timestamp;P1;durP1;ratioP1;P2;durP2;ratioP2
56013;SDS011;41893;55.868;37.632;2022-07-09T00:00:52;26.25;;;11.35;;
56013;SDS011;41893;55.868;37.632;2022-07-09T00:03:19;25.90;;;11.73;;
56013;SDS011;41893;55.868;37.632;2022-07-09T00:05:45;25.40;;;10.55;;
56013;SDS011;41893;55.868;37.632;2022-07-09T00:08:11;32.03;;;12.88;;
56013;SDS011;41893;55.868;37.632;2022-07-09T00:10:36;18.70;;;10.80;;
56013;SDS011;41893;55.868;37.632;2022-07-09T00:13:02;30.40;;;11.65;;
56013;SDS011;41893;55.868;37.632;2022-07-09T00:15:28;35.08;;;12.48;;
56013;SDS011;41893;55.868;37.632;2022-07-09T00:17:54;25.13;;;11.55;;
56013;SDS011;41893;55.868;37.632;2022-07-09T00:20:19;26.80;;;12.68;;
56013;SDS011;41893;55.868;37.632;2022-07-09T00:22:45;32.08;;;14.00;;
56013;SDS011;41893;55.868;37.632;2022-07-09T00:25:11;21.50;;;11.65;;
56013;SDS011;41893;55.868;37.632;2022-07-09T00:27:36;33.47;;;12.70;;
56013;SDS011;41893;55.868;37.632;2022-07-09T00:30:02;25.38;;;12.35;;
56013;SDS011;41893;55.868;37.632;2022-07-09T00:32:29;25.58;;;13.55;;
56013;SDS011;41893;55.868;37.632;2022-07-09T00:34:55;21.80;;;11.63;;
56013;SDS011;41893;55.868;37.632;2022-07-09T00:37:20;38.10;;;13.95;;
56013;SDS011;41893;55.868;37.632;2022-07-09T00:39:46;34.03;;;12.75;;
56013;SDS011;41893;55.868;37.632;2022-07-09T00:42:12;32.75;;;14.38;;
56013;SDS011;41893;55.868;37.632;2022-07-09T00:44:38;29.98;;;11.82;;
56013;SDS011;41893;55.868;37.632;2022-07-09T00:47:04;28.00;;;13.20;;
56013;SDS011;41893;55.868;37.632;2022-07-09T00:49:34;44.47;;;14.15;;
56013;SDS011;41893;55.868;37.632;2022-07-09T00:52:04;32.45;;;12.77;;
56013;SDS011;41893;55.868;37.632;2022-07-09T00:54:31;33.60;;;12.82;;
56013;SDS011;41893;55.868;37.632;2022-07-09T00:56:57;39.13;;;13.70;;
56013;SDS011;41893;55.868;37.632;2022-07-09T00:59:23;40.85;;;13.18;;
56013;SDS011;41893;55.868;37.632;2022-07-09T01:01:49;28.23;;;14.20;;
56013;SDS011;41893;55.868;37.632;2022-07-09T01:04:16;29.17;;;11.98;;
56013;SDS011;41893;55.868;37.632;2022-07-09T01:06:42;36.42;;;12.55;;
56013;SDS011;41893;55.868;37.632;2022-07-09T01:09:08;27.02;;;12.45;;
56013;SDS011;41893;55.868;37.632;2022-07-09T01:11:34;31.73;;;12.55;;
56013;SDS011;41893;55.868;37.632;2022-07-09T01:14:01;34.10;;;12.50;;
56013;SDS011;41893;55.868;37.632;2022-07-09T01:16:30;23.48;;;12.68;;
56013;SDS011;41893;55.868;37.632;2022-07-09T01:19:00;18.00;;;13.50;;
56013;SDS011;41893;55.868;37.632;2022-07-09T01:21:26;22.38;;;12.57;;
56013;SDS011;41893;55.868;37.632;2022-07-09T01:23:52;29.00;;;13.75;;
56013;SDS011;41893;55.868;37.632;2022-07-09T01:26:18;18.95;;;13.95;;
56013;SDS011;41893;55.868;37.632;2022-07-09T01:28:47;19.50;;;13.70;;
56013;SDS011;41893;55.868;37.632;2022-07-09T01:31:13;35.03;;;13.15;;
56013;SDS011;41893;55.868;37.632;2022-07-09T01:33:39;35.10;;;14.82;;
56013;SDS011;41893;55.868;37.632;2022-07-09T01:36:06;40.65;;;13.75;;
56013;SDS011;41893;55.868;37.632;2022-07-09T01:38:32;35.28;;;13.23;;
56013;SDS011;41893;55.868;37.632;2022-07-09T01:40:58;25.05;;;14.02;;
56013;SDS011;41893;55.868;37.632;2022-07-09T01:43:24;36.05;;;13.68;;
56013;SDS011;41893;55.868;37.632;2022-07-09T01:45:50;26.08;;;14.13;;
56013;SDS011;41893;55.868;37.632;2022-07-09T01:48:16;27.08;;;14.25;;
56013;SDS011;41893;55.868;37.632;2022-07-09T01:50:42;37.25;;;13.80;;
56013;SDS011;41893;55.868;37.632;2022-07-09T01:53:08;19.05;;;13.15;;
56013;SDS011;41893;55.868;37.632;2022-07-09T01:55:35;29.27;;;13.82;;
56013;SDS011;41893;55.868;37.632;2022-07-09T01:58:01;37.60;;;15.13;;
56013;SDS011;41893;55.868;37.632;2022-07-09T02:00:26;37.03;;;13.60;;
56013;SDS011;41893;55.868;37.632;2022-07-09T02:02:54;27.98;;;13.65;;
56013;SDS011;41893;55.868;37.632;2022-07-09T02:05:21;52.17;;;14.32;;
56013;SDS011;41893;55.868;37.632;2022-07-09T02:07:47;19.60;;;13.80;;
56013;SDS011;41893;55.868;37.632;2022-07-09T02:10:13;25.15;;;12.85;;
56013;SDS011;41893;55.868;37.632;2022-07-09T02:12:39;32.20;;;13.25;;
56013;SDS011;41893;55.868;37.632;2022-07-09T02:15:06;34.33;;;14.20;;
56013;SDS011;41893;55.868;37.632;2022-07-09T02:17:33;39.25;;;14.05;;
56013;SDS011;41893;55.868;37.632;2022-07-09T02:19:59;39.10;;;16.10;;
56013;SDS011;41893;55.868;37.632;2022-07-09T02:22:25;35.95;;;14.15;;
56013;SDS011;41893;55.868;37.632;2022-07-09T02:24:51;46.70;;;15.07;;
56013;SDS011;41893;55.868;37.632;2022-07-09T02:27:17;36.60;;;14.95;;
56013;SDS011;41893;55.868;37.632;2022-07-09T02:29:42;28.05;;;14.93;;
56013;SDS011;41893;55.868;37.632;2022-07-09T02:32:08;30.65;;;14.57;;
56013;SDS011;41893;55.868;37.632;2022-07-09T02:34:37;39.22;;;16.13;;
56013;SDS011;41893;55.868;37.632;2022-07-09T02:37:07;38.90;;;15.07;;
56013;SDS011;41893;55.868;37.632;2022-07-09T02:39:33;43.42;;;14.98;;
56013;SDS011;41893;55.868;37.632;2022-07-09T02:41:59;39.25;;;15.82;;
56013;SDS011;41893;55.868;37.632;2022-07-09T02:44:25;36.47;;;17.48;;
56013;SDS011;41893;55.868;37.632;2022-07-09T02:46:51;26.05;;;14.15;;
56013;SDS011;41893;55.868;37.632;2022-07-09T02:49:17;29.95;;;14.48;;
56013;SDS011;41893;55.868;37.632;2022-07-09T02:51:43;53.42;;;16.58;;
56013;SDS011;41893;55.868;37.632;2022-07-09T02:54:09;36.10;;;15.10;;
56013;SDS011;41893;55.868;37.632;2022-07-09T02:56:34;39.92;;;17.80;;
56013;SDS011;41893;55.868;37.632;2022-07-09T02:59:00;23.25;;;14.10;;
56013;SDS011;41893;55.868;37.632;2022-07-09T03:01:28;35.47;;;16.48;;
56013;SDS011;41893;55.868;37.632;2022-07-09T03:03:54;41.70;;;15.63;;
56013;SDS011;41893;55.868;37.632;2022-07-09T03:06:20;35.10;;;15.82;;
56013;SDS011;41893;55.868;37.632;2022-07-09T03:08:46;51.25;;;16.23;;
56013;SDS011;41893;55.868;37.632;2022-07-09T03:11:11;52.97;;;18.83;;
56013;SDS011;41893;55.868;37.632;2022-07-09T03:13:37;50.53;;;18.73;;
56013;SDS011;41893;55.868;37.632;2022-07-09T03:16:03;44.83;;;17.85;;
56013;SDS011;41893;55.868;37.632;2022-07-09T03:18:29;34.10;;;16.48;;
56013;SDS011;41893;55.868;37.632;2022-07-09T03:20:55;45.30;;;17.95;;
56013;SDS011;41893;55.868;37.632;2022-07-09T03:23:21;29.98;;;16.77;;
56013;SDS011;41893;55.868;37.632;2022-07-09T03:25:47;35.90;;;16.38;;
56013;SDS011;41893;55.868;37.632;2022-07-09T03:28:12;31.88;;;17.27;;
56013;SDS011;41893;55.868;37.632;2022-07-09T03:30:38;52.25;;;15.73;;
56013;SDS011;41893;55.868;37.632;2022-07-09T03:33:04;31.50;;;17.08;;
56013;SDS011;41893;55.868;37.632;2022-07-09T03:35:30;33.78;;;15.40;;
56013;SDS011;41893;55.868;37.632;2022-07-09T03:37:55;28.05;;;15.52;;
56013;SDS011;41893;55.868;37.632;2022-07-09T03:40:21;20.95;;;14.43;;
56013;SDS011;41893;55.868;37.632;2022-07-09T03:42:47;19.92;;;15.52;;
56013;SDS011;41893;55.868;37.632;2022-07-09T03:45:13;32.13;;;15.63;;
56013;SDS011;41893;55.868;37.632;2022-07-09T03:47:39;25.33;;;13.65;;
56013;SDS011;41893;55.868;37.632;2022-07-09T03:50:05;30.60;;;14.15;;
56013;SDS011;41893;55.868;37.632;2022-07-09T03:52:32;21.33;;;13.30;;
56013;SDS011;41893;55.868;37.632;2022-07-09T03:54:58;33.78;;;14.13;;
56013;SDS011;41893;55.868;37.632;2022-07-09T03:57:24;18.80;;;12.20;;
56013;SDS011;41893;55.868;37.632;2022-07-09T03:59:49;14.20;;;10.48;;
56013;SDS011;41893;55.868;37.632;2022-07-09T04:02:15;18.90;;;10.75;;
56013;SDS011;41893;55.868;37.632;2022-07-09T04:04:41;11.48;;;9.90;;
56013;SDS011;41893;55.868;37.632;2022-07-09T04:07:08;11.45;;;10.05;;
56013;SDS011;41893;55.868;37.632;2022-07-09T04:09:34;22.95;;;8.50;;
56013;SDS011;41893;55.868;37.632;2022-07-09T04:12:00;19.83;;;8.30;;
56013;SDS011;41893;55.868;37.632;2022-07-09T04:14:26;13.30;;;8.52;;
56013;SDS011;41893;55.868;37.632;2022-07-09T04:16:51;18.83;;;7.63;;
56013;SDS011;41893;55.868;37.632;2022-07-09T04:19:17;11.77;;;6.90;;
56013;SDS011;41893;55.868;37.632;2022-07-09T04:21:43;8.57;;;7.90;;
56013;SDS011;41893;55.868;37.632;2022-07-09T04:24:09;10.05;;;7.40;;
56013;SDS011;41893;55.868;37.632;2022-07-09T04:26:34;10.77;;;6.85;;
56013;SDS011;41893;55.868;37.632;2022-07-09T04:29:00;12.60;;;7.15;;
56013;SDS011;41893;55.868;37.632;2022-07-09T04:31:26;7.32;;;6.72;;
56013;SDS011;41893;55.868;37.632;2022-07-09T04:33:51;7.18;;;6.47;;
56013;SDS011;41893;55.868;37.632;2022-07-09T04:36:17;11.30;;;6.28;;
56013;SDS011;41893;55.868;37.632;2022-07-09T04:38:43;13.20;;;6.07;;
56013;SDS011;41893;55.868;37.632;2022-07-09T04:41:08;14.85;;;6.03;;
56013;SDS011;41893;55.868;37.632;2022-07-09T04:43:34;7.47;;;5.90;;
56013;SDS011;41893;55.868;37.632;2022-07-09T04:46:00;7.93;;;5.85;;
56013;SDS011;41893;55.868;37.632;2022-07-09T04:48:25;11.75;;;6.28;;
56013;SDS011;41893;55.868;37.632;2022-07-09T04:50:52;13.93;;;6.43;;
56013;SDS011;41893;55.868;37.632;2022-07-09T04:53:17;6.25;;;5.75;;
56013;SDS011;41893;55.868;37.632;2022-07-09T04:55:43;8.85;;;6.15;;
56013;SDS011;41893;55.868;37.632;2022-07-09T04:58:09;10.50;;;6.00;;
56013;SDS011;41893;55.868;37.632;2022-07-09T05:00:35;12.90;;;6.72;;
56013;SDS011;41893;55.868;37.632;2022-07-09T05:03:01;7.45;;;5.47;;
56013;SDS011;41893;55.868;37.632;2022-07-09T05:05:27;12.23;;;5.68;;
56013;SDS011;41893;55.868;37.632;2022-07-09T05:07:53;17.35;;;7.07;;
56013;SDS011;41893;55.868;37.632;2022-07-09T05:10:19;9.20;;;6.90;;
56013;SDS011;41893;55.868;37.632;2022-07-09T05:12:45;7.47;;;6.28;;
56013;SDS011;41893;55.868;37.632;2022-07-09T05:15:12;8.05;;;6.07;;
56013;SDS011;41893;55.868;37.632;2022-07-09T05:17:39;12.18;;;6.53;;
56013;SDS011;41893;55.868;37.632;2022-07-09T05:20:07;14.60;;;6.93;;
56013;SDS011;41893;55.868;37.632;2022-07-09T05:22:34;8.45;;;6.07;;
56013;SDS011;41893;55.868;37.632;2022-07-09T05:25:01;6.57;;;6.07;;
56013;SDS011;41893;55.868;37.632;2022-07-09T05:27:29;14.43;;;6.60;;
56013;SDS011;41893;55.868;37.632;2022-07-09T05:29:55;10.52;;;5.35;;
56013;SDS011;41893;55.868;37.632;2022-07-09T05:32:21;6.22;;;5.57;;
56013;SDS011;41893;55.868;37.632;2022-07-09T05:34:46;12.13;;;6.57;;
56013;SDS011;41893;55.868;37.632;2022-07-09T05:37:12;12.10;;;6.47;;
56013;SDS011;41893;55.868;37.632;2022-07-09T05:39:38;10.80;;;5.85;;
56013;SDS011;41893;55.868;37.632;2022-07-09T05:42:04;9.82;;;6.32;;
56013;SDS011;41893;55.868;37.632;2022-07-09T05:44:30;5.78;;;5.30;;
56013;SDS011;41893;55.868;37.632;2022-07-09T05:46:56;10.95;;;4.55;;
56013;SDS011;41893;55.868;37.632;2022-07-09T05:49:22;5.88;;;5.38;;
56013;SDS011;41893;55.868;37.632;2022-07-09T05:51:48;8.93;;;4.85;;
56013;SDS011;41893;55.868;37.632;2022-07-09T05:54:13;5.00;;;4.60;;
56013;SDS011;41893;55.868;37.632;2022-07-09T05:56:39;4.00;;;3.67;;
56013;SDS011;41893;55.868;37.632;2022-07-09T05:59:06;3.30;;;2.95;;
56013;SDS011;41893;55.868;37.632;2022-07-09T06:01:33;10.20;;;3.47;;
56013;SDS011;41893;55.868;37.632;2022-07-09T06:04:04;8.35;;;3.03;;
56013;SDS011;41893;55.868;37.632;2022-07-09T06:06:30;6.00;;;3.05;;
56013;SDS011;41893;55.868;37.632;2022-07-09T06:08:56;2.95;;;2.30;;
56013;SDS011;41893;55.868;37.632;2022-07-09T06:11:21;2.20;;;2.10;;
56013;SDS011;41893;55.868;37.632;2022-07-09T06:13:47;5.18;;;1.88;;
56013;SDS011;41893;55.868;37.632;2022-07-09T06:16:13;3.72;;;2.30;;
56013;SDS011;41893;55.868;37.632;2022-07-09T06:18:39;7.00;;;2.25;;
56013;SDS011;41893;55.868;37.632;2022-07-09T06:21:05;2.78;;;2.58;;
56013;SDS011;41893;55.868;37.632;2022-07-09T06:23:31;2.55;;;2.03;;
56013;SDS011;41893;55.868;37.632;2022-07-09T06:25:57;2.42;;;1.60;;
56013;SDS011;41893;55.868;37.632;2022-07-09T06:28:22;1.95;;;1.85;;
56013;SDS011;41893;55.868;37.632;2022-07-09T06:30:48;8.27;;;1.70;;
56013;SDS011;41893;55.868;37.632;2022-07-09T06:33:14;6.25;;;1.75;;
56013;SDS011;41893;55.868;37.632;2022-07-09T06:35:40;2.28;;;2.08;;
56013;SDS011;41893;55.868;37.632;2022-07-09T06:38:05;2.03;;;1.83;;
56013;SDS011;41893;55.868;37.632;2022-07-09T06:40:31;6.82;;;1.40;;
56013;SDS011;41893;55.868;37.632;2022-07-09T06:42:58;3.10;;;1.90;;
56013;SDS011;41893;55.868;37.632;2022-07-09T06:45:32;3.05;;;1.77;;
56013;SDS011;41893;55.868;37.632;2022-07-09T06:47:57;3.38;;;1.60;;
56013;SDS011;41893;55.868;37.632;2022-07-09T06:50:23;4.57;;;2.22;;
56013;SDS011;41893;55.868;37.632;2022-07-09T06:52:49;4.25;;;2.20;;
56013;SDS011;41893;55.868;37.632;2022-07-09T06:55:15;5.65;;;2.00;;
56013;SDS011;41893;55.868;37.632;2022-07-09T06:57:40;5.28;;;1.80;;
56013;SDS011;41893;55.868;37.632;2022-07-09T07:00:06;1.90;;;1.58;;
56013;SDS011;41893;55.868;37.632;2022-07-09T07:02:33;2.72;;;1.50;;
56013;SDS011;41893;55.868;37.632;2022-07-09T07:04:59;20.27;;;3.97;;
56013;SDS011;41893;55.868;37.632;2022-07-09T07:07:25;5.28;;;2.08;;
56013;SDS011;41893;55.868;37.632;2022-07-09T07:09:51;8.38;;;1.70;;
56013;SDS011;41893;55.868;37.632;2022-07-09T07:12:17;13.10;;;1.70;;
56013;SDS011;41893;55.868;37.632;2022-07-09T07:14:42;3.60;;;1.88;;
56013;SDS011;41893;55.868;37.632;2022-07-09T07:17:08;4.97;;;2.40;;
56013;SDS011;41893;55.868;37.632;2022-07-09T07:19:34;4.18;;;2.00;;
56013;SDS011;41893;55.868;37.632;2022-07-09T07:22:00;10.68;;;2.92;;
56013;SDS011;41893;55.868;37.632;2022-07-09T07:24:26;4.88;;;2.60;;
56013;SDS011;41893;55.868;37.632;2022-07-09T07:26:52;2.95;;;2.63;;
56013;SDS011;41893;55.868;37.632;2022-07-09T07:29:18;9.20;;;2.63;;
56013;SDS011;41893;55.868;37.632;2022-07-09T07:31:45;1.70;;;1.58;;
56013;SDS011;41893;55.868;37.632;2022-07-09T07:34:11;3.05;;;2.53;;
56013;SDS011;41893;55.868;37.632;2022-07-09T07:36:37;7.03;;;2.05;;
56013;SDS011;41893;55.868;37.632;2022-07-09T07:39:03;3.20;;;2.03;;
56013;SDS011;41893;55.868;37.632;2022-07-09T07:41:29;1.83;;;1.73;;
56013;SDS011;41893;55.868;37.632;2022-07-09T07:43:54;3.72;;;2.08;;
56013;SDS011;41893;55.868;37.632;2022-07-09T07:46:20;2.35;;;2.00;;
56013;SDS011;41893;55.868;37.632;2022-07-09T07:48:46;11.13;;;3.42;;
56013;SDS011;41893;55.868;37.632;2022-07-09T07:51:12;4.75;;;1.77;;
56013;SDS011;41893;55.868;37.632;2022-07-09T07:53:38;1.70;;;1.60;;
56013;SDS011;41893;55.868;37.632;2022-07-09T07:56:04;2.17;;;1.55;;
56013;SDS011;41893;55.868;37.632;2022-07-09T07:58:31;1.60;;;1.50;;
56013;SDS011;41893;55.868;37.632;2022-07-09T08:00:57;2.83;;;1.67;;
56013;SDS011;41893;55.868;37.632;2022-07-09T08:03:23;2.03;;;1.92;;
56013;SDS011;41893;55.868;37.632;2022-07-09T08:05:49;8.82;;;2.00;;
56013;SDS011;41893;55.868;37.632;2022-07-09T08:08:15;2.53;;;2.00;;
56013;SDS011;41893;55.868;37.632;2022-07-09T08:10:41;5.22;;;2.08;;
56013;SDS011;41893;55.868;37.632;2022-07-09T08:13:07;2.10;;;1.90;;
56013;SDS011;41893;55.868;37.632;2022-07-09T08:15:32;2.42;;;1.92;;
56013;SDS011;41893;55.868;37.632;2022-07-09T08:17:58;8.82;;;2.88;;
56013;SDS011;41893;55.868;37.632;2022-07-09T08:20:24;4.82;;;2.35;;
56013;SDS011;41893;55.868;37.632;2022-07-09T08:22:50;8.93;;;2.58;;
56013;SDS011;41893;55.868;37.632;2022-07-09T08:25:15;3.25;;;2.95;;
56013;SDS011;41893;55.868;37.632;2022-07-09T08:27:41;2.85;;;2.65;;
56013;SDS011;41893;55.868;37.632;2022-07-09T08:30:07;27.48;;;14.00;;
56013;SDS011;41893;55.868;37.632;2022-07-09T08:32:33;4.72;;;4.10;;
56013;SDS011;41893;55.868;37.632;2022-07-09T08:34:59;4.22;;;3.40;;
56013;SDS011;41893;55.868;37.632;2022-07-09T08:37:24;11.20;;;2.55;;
56013;SDS011;41893;55.868;37.632;2022-07-09T08:39:50;3.53;;;3.17;;
56013;SDS011;41893;55.868;37.632;2022-07-09T08:42:16;8.40;;;3.75;;
56013;SDS011;41893;55.868;37.632;2022-07-09T08:44:43;7.47;;;3.60;;
56013;SDS011;41893;55.868;37.632;2022-07-09T08:47:11;4.32;;;3.70;;
56013;SDS011;41893;55.868;37.632;2022-07-09T08:49:39;11.65;;;4.32;;
56013;SDS011;41893;55.868;37.632;2022-07-09T08:52:06;15.90;;;3.55;;
56013;SDS011;41893;55.868;37.632;2022-07-09T08:54:34;8.55;;;3.97;;
56013;SDS011;41893;55.868;37.632;2022-07-09T08:57:03;6.75;;;3.70;;
56013;SDS011;41893;55.868;37.632;2022-07-09T08:59:30;8.13;;;4.13;;
56013;SDS011;41893;55.868;37.632;2022-07-09T09:01:56;9.55;;;4.18;;
56013;SDS011;41893;55.868;37.632;2022-07-09T09:04:23;6.38;;;4.47;;
56013;SDS011;41893;55.868;37.632;2022-07-09T09:06:49;4.32;;;3.92;;
56013;SDS011;41893;55.868;37.632;2022-07-09T09:09:19;10.82;;;4.80;;
56013;SDS011;41893;55.868;37.632;2022-07-09T09:11:48;14.05;;;4.32;;
56013;SDS011;41893;55.868;37.632;2022-07-09T09:14:20;11.68;;;4.13;;
56013;SDS011;41893;55.868;37.632;2022-07-09T09:16:48;5.33;;;3.97;;
56013;SDS011;41893;55.868;37.632;2022-07-09T09:19:14;7.07;;;4.32;;
56013;SDS011;41893;55.868;37.632;2022-07-09T09:21:40;11.88;;;4.57;;
56013;SDS011;41893;55.868;37.632;2022-07-09T09:24:09;6.97;;;5.72;;
56013;SDS011;41893;55.868;37.632;2022-07-09T09:26:35;4.50;;;4.10;;
56013;SDS011;41893;55.868;37.632;2022-07-09T09:29:02;9.93;;;3.90;;
56013;SDS011;41893;55.868;37.632;2022-07-09T09:31:29;12.93;;;4.88;;
56013;SDS011;41893;55.868;37.632;2022-07-09T09:36:38;16.17;;;5.30;;
56013;SDS011;41893;55.868;37.632;2022-07-09T09:41:37;13.60;;;4.93;;
56013;SDS011;41893;55.868;37.632;2022-07-09T09:44:07;9.60;;;4.95;;
56013;SDS011;41893;55.868;37.632;2022-07-09T09:49:07;21.20;;;5.05;;
56013;SDS011;41893;55.868;37.632;2022-07-09T09:51:34;64.83;;;8.83;;
56013;SDS011;41893;55.868;37.632;2022-07-09T09:54:02;14.50;;;6.30;;
56013;SDS011;41893;55.868;37.632;2022-07-09T09:56:30;15.38;;;6.05;;
56013;SDS011;41893;55.868;37.632;2022-07-09T09:58:58;10.93;;;6.05;;
56013;SDS011;41893;55.868;37.632;2022-07-09T10:01:25;12.38;;;5.38;;
56013;SDS011;41893;55.868;37.632;2022-07-09T10:03:53;13.65;;;5.78;;
56013;SDS011;41893;55.868;37.632;2022-07-09T10:06:20;17.88;;;5.65;;
56013;SDS011;41893;55.868;37.632;2022-07-09T10:08:45;19.27;;;6.50;;
56013;SDS011;41893;55.868;37.632;2022-07-09T10:11:11;25.55;;;7.03;;
56013;SDS011;41893;55.868;37.632;2022-07-09T10:13:37;21.80;;;6.25;;
56013;SDS011;41893;55.868;37.632;2022-07-09T10:16:04;18.63;;;6.50;;
56013;SDS011;41893;55.868;37.632;2022-07-09T10:18:29;8.02;;;6.03;;
56013;SDS011;41893;55.868;37.632;2022-07-09T10:20:55;14.82;;;6.60;;
56013;SDS011;41893;55.868;37.632;2022-07-09T10:23:23;7.85;;;6.97;;
56013;SDS011;41893;55.868;37.632;2022-07-09T10:25:49;13.18;;;6.90;;
56013;SDS011;41893;55.868;37.632;2022-07-09T10:28:18;14.60;;;6.25;;
56013;SDS011;41893;55.868;37.632;2022-07-09T10:30:46;12.60;;;7.22;;
56013;SDS011;41893;55.868;37.632;2022-07-09T10:33:13;16.02;;;8.63;;
56013;SDS011;41893;55.868;37.632;2022-07-09T10:38:11;15.30;;;6.63;;
56013;SDS011;41893;55.868;37.632;2022-07-09T10:40:38;15.00;;;6.05;;
56013;SDS011;41893;55.868;37.632;2022-07-09T10:43:04;9.98;;;5.95;;
56013;SDS011;41893;55.868;37.632;2022-07-09T10:48:02;4.47;;;4.00;;
56013;SDS011;41893;55.868;37.632;2022-07-09T10:50:30;6.20;;;3.65;;
56013;SDS011;41893;55.868;37.632;2022-07-09T10:52:58;4.75;;;3.90;;
56013;SDS011;41893;55.868;37.632;2022-07-09T10:55:28;6.13;;;3.60;;
56013;SDS011;41893;55.868;37.632;2022-07-09T10:57:55;3.60;;;2.42;;
56013;SDS011;41893;55.868;37.632;2022-07-09T11:00:25;6.03;;;3.45;;
56013;SDS011;41893;55.868;37.632;2022-07-09T11:02:52;13.70;;;2.58;;
56013;SDS011;41893;55.868;37.632;2022-07-09T11:05:19;12.15;;;3.70;;
56013;SDS011;41893;55.868;37.632;2022-07-09T11:07:55;4.20;;;2.83;;
56013;SDS011;41893;55.868;37.632;2022-07-09T11:10:25;2.90;;;2.60;;
56013;SDS011;41893;55.868;37.632;2022-07-09T11:12:53;6.57;;;2.90;;
56013;SDS011;41893;55.868;37.632;2022-07-09T11:15:24;3.60;;;3.30;;
56013;SDS011;41893;55.868;37.632;2022-07-09T11:17:58;3.75;;;2.78;;
56013;SDS011;41893;55.868;37.632;2022-07-09T11:20:31;5.50;;;2.28;;
56013;SDS011;41893;55.868;37.632;2022-07-09T11:23:01;6.45;;;2.97;;
56013;SDS011;41893;55.868;37.632;2022-07-09T11:25:27;17.92;;;2.60;;
56013;SDS011;41893;55.868;37.632;2022-07-09T11:27:56;2.80;;;2.60;;
56013;SDS011;41893;55.868;37.632;2022-07-09T11:30:23;7.95;;;3.08;;
56013;SDS011;41893;55.868;37.632;2022-07-09T11:32:49;6.18;;;2.90;;
56013;SDS011;41893;55.868;37.632;2022-07-09T11:38:01;5.85;;;3.10;;
56013;SDS011;41893;55.868;37.632;2022-07-09T11:40:29;7.38;;;3.47;;
56013;SDS011;41893;55.868;37.632;2022-07-09T11:42:56;4.20;;;3.00;;
56013;SDS011;41893;55.868;37.632;2022-07-09T11:45:22;6.82;;;3.63;;
56013;SDS011;41893;55.868;37.632;2022-07-09T11:47:49;11.00;;;3.95;;
56013;SDS011;41893;55.868;37.632;2022-07-09T11:50:26;4.03;;;3.70;;
56013;SDS011;41893;55.868;37.632;2022-07-09T11:52:52;4.90;;;3.97;;
56013;SDS011;41893;55.868;37.632;2022-07-09T11:55:19;8.88;;;4.38;;
56013;SDS011;41893;55.868;37.632;2022-07-09T11:57:50;11.50;;;5.53;;
56013;SDS011;41893;55.868;37.632;2022-07-09T12:00:21;10.18;;;5.80;;
56013;SDS011;41893;55.868;37.632;2022-07-09T12:02:52;6.13;;;5.50;;
56013;SDS011;41893;55.868;37.632;2022-07-09T12:05:25;8.05;;;6.68;;
56013;SDS011;41893;55.868;37.632;2022-07-09T12:07:56;10.02;;;5.90;;
56013;SDS011;41893;55.868;37.632;2022-07-09T12:10:27;5.55;;;5.15;;
56013;SDS011;41893;55.868;37.632;2022-07-09T12:12:53;10.05;;;6.97;;
56013;SDS011;41893;55.868;37.632;2022-07-09T12:15:19;7.45;;;6.28;;
56013;SDS011;41893;55.868;37.632;2022-07-09T12:17:44;5.68;;;5.20;;
56013;SDS011;41893;55.868;37.632;2022-07-09T12:20:16;7.82;;;5.60;;
56013;SDS011;41893;55.868;37.632;2022-07-09T12:22:42;6.03;;;5.53;;
56013;SDS011;41893;55.868;37.632;2022-07-09T12:25:08;10.60;;;6.57;;
56013;SDS011;41893;55.868;37.632;2022-07-09T12:27:34;8.05;;;5.85;;
56013;SDS011;41893;55.868;37.632;2022-07-09T12:29:59;9.00;;;5.45;;
56013;SDS011;41893;55.868;37.632;2022-07-09T12:32:25;8.45;;;4.85;;
56013;SDS011;41893;55.868;37.632;2022-07-09T12:34:51;4.90;;;4.53;;
56013;SDS011;41893;55.868;37.632;2022-07-09T12:37:16;4.53;;;4.20;;
56013;SDS011;41893;55.868;37.632;2022-07-09T12:39:42;7.07;;;5.85;;
56013;SDS011;41893;55.868;37.632;2022-07-09T12:42:08;5.78;;;5.15;;
56013;SDS011;41893;55.868;37.632;2022-07-09T12:44:33;125.13;;;13.52;;
56013;SDS011;41893;55.868;37.632;2022-07-09T12:46:59;11.88;;;6.15;;
56013;SDS011;41893;55.868;37.632;2022-07-09T12:49:25;5.43;;;4.93;;
56013;SDS011;41893;55.868;37.632;2022-07-09T12:51:51;9.80;;;5.25;;
56013;SDS011;41893;55.868;37.632;2022-07-09T12:54:16;9.20;;;4.75;;
56013;SDS011;41893;55.868;37.632;2022-07-09T12:56:42;4.85;;;4.55;;
56013;SDS011;41893;55.868;37.632;2022-07-09T12:59:08;4.93;;;4.53;;
56013;SDS011;41893;55.868;37.632;2022-07-09T13:01:34;4.68;;;4.38;;
56013;SDS011;41893;55.868;37.632;2022-07-09T13:03:59;4.35;;;3.95;;
56013;SDS011;41893;55.868;37.632;2022-07-09T13:06:25;4.93;;;4.53;;
56013;SDS011;41893;55.868;37.632;2022-07-09T13:08:57;6.90;;;5.35;;
56013;SDS011;41893;55.868;37.632;2022-07-09T13:11:24;4.60;;;4.18;;
56013;SDS011;41893;55.868;37.632;2022-07-09T13:13:51;4.22;;;3.92;;
56013;SDS011;41893;55.868;37.632;2022-07-09T13:16:16;4.53;;;4.13;;
56013;SDS011;41893;55.868;37.632;2022-07-09T13:18:42;6.78;;;4.78;;
56013;SDS011;41893;55.868;37.632;2022-07-09T13:21:08;5.78;;;5.38;;
56013;SDS011;41893;55.868;37.632;2022-07-09T13:23:34;20.65;;;5.55;;
56013;SDS011;41893;55.868;37.632;2022-07-09T13:26:01;18.88;;;7.35;;
56013;SDS011;41893;55.868;37.632;2022-07-09T13:28:27;10.75;;;5.40;;
56013;SDS011;41893;55.868;37.632;2022-07-09T13:30:53;7.90;;;5.53;;
56013;SDS011;41893;55.868;37.632;2022-07-09T13:33:19;11.05;;;4.50;;
56013;SDS011;41893;55.868;37.632;2022-07-09T13:35:44;5.15;;;4.75;;
56013;SDS011;41893;55.868;37.632;2022-07-09T13:38:10;4.28;;;3.97;;
56013;SDS011;41893;55.868;37.632;2022-07-09T13:40:36;13.68;;;5.65;;
56013;SDS011;41893;55.868;37.632;2022-07-09T13:43:02;11.50;;;4.13;;
56013;SDS011;41893;55.868;37.632;2022-07-09T13:45:28;4.82;;;4.53;;
56013;SDS011;41893;55.868;37.632;2022-07-09T13:47:54;8.07;;;4.95;;
56013;SDS011;41893;55.868;37.632;2022-07-09T13:50:20;9.52;;;4.45;;
56013;SDS011;41893;55.868;37.632;2022-07-09T13:52:47;10.50;;;4.28;;
56013;SDS011;41893;55.868;37.632;2022-07-09T13:55:13;5.63;;;5.13;;
56013;SDS011;41893;55.868;37.632;2022-07-09T13:57:39;8.52;;;4.10;;
56013;SDS011;41893;55.868;37.632;2022-07-09T14:00:05;4.47;;;4.18;;
56013;SDS011;41893;55.868;37.632;2022-07-09T14:02:32;4.80;;;4.40;;
56013;SDS011;41893;55.868;37.632;2022-07-09T14:05:02;5.10;;;4.70;;
56013;SDS011;41893;55.868;37.632;2022-07-09T14:09:55;5.07;;;4.78;;
56013;SDS011;41893;55.868;37.632;2022-07-09T14:12:22;6.28;;;4.85;;
56013;SDS011;41893;55.868;37.632;2022-07-09T14:14:52;4.53;;;4.20;;
56013;SDS011;41893;55.868;37.632;2022-07-09T14:17:18;19.13;;;5.05;;
56013;SDS011;41893;55.868;37.632;2022-07-09T14:19:44;6.20;;;4.20;;
56013;SDS011;41893;55.868;37.632;2022-07-09T14:22:11;8.43;;;4.38;;
56013;SDS011;41893;55.868;37.632;2022-07-09T14:24:36;10.07;;;4.65;;
56013;SDS011;41893;55.868;37.632;2022-07-09T14:27:03;8.80;;;4.68;;
56013;SDS011;41893;55.868;37.632;2022-07-09T14:29:29;8.13;;;5.57;;
56013;SDS011;41893;55.868;37.632;2022-07-09T14:31:55;4.95;;;4.60;;
56013;SDS011;41893;55.868;37.632;2022-07-09T14:34:21;8.52;;;5.25;;
56013;SDS011;41893;55.868;37.632;2022-07-09T14:36:50;5.03;;;4.72;;